createdAt,value
2022-11-29T00:01:57.901Z,97936.63
2022-11-29T00:04:26.712Z,97929.81
2022-11-29T00:06:55.290Z,97932.38
2022-11-29T00:09:25.295Z,97927.19
2022-11-29T00:12:11.435Z,97928.13
2022-11-29T00:14:41.184Z,97927.19
2022-11-29T00:17:10.236Z,97929.84
2022-11-29T00:19:39.079Z,97928.94
2022-11-29T00:22:07.855Z,97924.72
2022-11-29T00:24:38.089Z,97927.38
2022-11-29T00:27:06.741Z,97924.72
2022-11-29T00:29:35.746Z,97930.75
2022-11-29T00:32:04.851Z,97927.28
2022-11-29T00:34:33.478Z,97921.34
2022-11-29T00:37:02.033Z,97928.19
2022-11-29T00:39:30.748Z,97926.38
2022-11-29T00:42:00.674Z,97926.38
2022-11-29T00:44:29.447Z,97925.50
2022-11-29T00:46:58.006Z,97924.63
2022-11-29T00:49:26.612Z,97927.28
2022-11-29T00:51:55.382Z,97926.47
2022-11-29T00:54:24.089Z,97928.06
2022-11-29T00:56:52.927Z,97940.94
2022-11-29T00:59:22.946Z,97935.69
2022-11-29T01:01:51.573Z,97930.50
2022-11-29T01:04:20.741Z,97933.97
2022-11-29T01:06:52.230Z,97934.06
2022-11-29T01:09:21.558Z,97940.13
2022-11-29T01:11:51.107Z,97942.66
2022-11-29T01:14:19.834Z,97936.63
2022-11-29T01:16:49.951Z,97939.22
2022-11-29T01:19:18.701Z,97935.78
2022-11-29T01:21:47.292Z,97935.78
2022-11-29T01:24:16.194Z,97936.63
2022-11-29T01:26:44.750Z,97940.94
2022-11-29T01:29:15.437Z,97936.72
2022-11-29T01:31:44.037Z,97941.84
2022-11-29T01:34:14.146Z,97941.78
2022-11-29T01:36:42.792Z,97940.06
2022-11-29T01:39:12.474Z,97948.59
2022-11-29T01:41:41.404Z,97942.56
2022-11-29T01:44:42.778Z,97946.03
2022-11-29T01:47:12.836Z,97928.91
2022-11-29T01:49:45.226Z,97940.91
2022-11-29T01:52:18.799Z,97941.66
2022-11-29T01:54:49.436Z,97934.88
2022-11-29T01:57:18.717Z,97940.81
2022-11-29T01:59:49.076Z,97938.25
2022-11-29T02:02:19.796Z,97937.31
2022-11-29T02:04:51.490Z,97939.91
2022-11-29T02:07:20.533Z,97932.19
2022-11-29T02:09:49.148Z,97932.19
2022-11-29T02:12:24.796Z,97933.06
2022-11-29T02:15:08.257Z,97932.19
2022-11-29T02:17:44.602Z,97935.63
2022-11-29T02:20:37.157Z,97942.38
2022-11-29T02:23:24.703Z,97941.53
2022-11-29T02:26:02.608Z,97952.56
2022-11-29T02:28:49.710Z,97944.94
2022-11-29T02:31:57.406Z,97939.78
2022-11-29T02:34:48.188Z,97932.88
2022-11-29T02:37:31.271Z,97945.75
2022-11-29T02:40:12.013Z,97942.25
2022-11-29T02:43:21.906Z,97947.38
2022-11-29T02:46:00.969Z,97940.59
2022-11-29T02:48:41.506Z,97944.88
2022-11-29T02:51:15.256Z,97949.09
2022-11-29T02:53:48.759Z,97949.09
2022-11-29T02:56:24.687Z,97952.41
2022-11-29T02:58:57.938Z,97944.69
2022-11-29T03:01:31.108Z,97954.13
2022-11-29T03:04:06.050Z,97943.72
2022-11-29T03:06:43.540Z,97946.22
2022-11-29T03:09:18.043Z,97957.31
2022-11-29T03:11:51.959Z,97950.56
2022-11-29T03:14:26.430Z,97949.66
2022-11-29T03:17:02.579Z,97955.66
2022-11-29T03:19:47.992Z,97958.97
2022-11-29T03:22:19.822Z,97962.44
2022-11-29T03:24:55.453Z,97961.66
2022-11-29T03:27:30.723Z,97964.19
2022-11-29T03:30:01.522Z,97961.66
2022-11-29T03:32:34.539Z,97965.03
2022-11-29T03:35:08.142Z,97967.69
2022-11-29T03:37:45.945Z,97961.63
2022-11-29T03:40:16.866Z,97961.72
2022-11-29T03:42:52.631Z,97967.69
2022-11-29T03:45:26.410Z,97966.03
2022-11-29T03:47:59.202Z,97968.47
2022-11-29T03:50:33.678Z,97970.19
2022-11-29T03:53:09.026Z,97977.13
2022-11-29T03:55:50.559Z,97972.81
2022-11-29T03:58:47.777Z,97977.88
2022-11-29T04:01:49.402Z,97966.75
2022-11-29T04:04:37.797Z,97975.25
2022-11-29T04:07:15.022Z,97970.13
2022-11-29T04:09:58.425Z,97972.69
2022-11-29T04:12:45.505Z,97977.00
2022-11-29T04:16:07.834Z,97977.00
2022-11-29T04:19:06.629Z,97982.00
2022-11-29T04:21:56.879Z,97984.63
2022-11-29T04:24:58.244Z,97980.41
2022-11-29T04:27:49.692Z,97990.34
2022-11-29T04:30:22.833Z,97993.03
2022-11-29T04:33:18.395Z,97990.53
2022-11-29T04:35:57.089Z,97995.59
2022-11-29T04:38:44.470Z,97995.66
2022-11-29T04:41:29.033Z,97998.22
2022-11-29T04:44:17.596Z,97999.16
2022-11-29T04:47:06.964Z,97993.09
2022-11-29T04:49:54.558Z,97997.25
2022-11-29T04:52:51.811Z,98006.56
2022-11-29T04:55:31.044Z,98001.53
2022-11-29T04:58:08.126Z,98006.56
2022-11-29T05:00:44.183Z,98006.47
2022-11-29T05:03:18.020Z,98007.38
2022-11-29T05:05:51.929Z,98007.47
2022-11-29T05:08:26.237Z,98010.66
2022-11-29T05:11:03.345Z,98013.47
2022-11-29T05:13:43.688Z,98015.16
2022-11-29T05:16:22.919Z,98015.28
2022-11-29T05:19:06.005Z,98014.13
2022-11-29T05:21:43.616Z,98019.31
2022-11-29T05:24:19.638Z,98024.31
2022-11-29T05:26:52.395Z,98018.88
2022-11-29T05:29:27.341Z,98022.22
2022-11-29T05:31:57.465Z,98027.53
2022-11-29T05:34:42.019Z,98029.31
2022-11-29T05:37:20.612Z,98032.34
2022-11-29T05:40:02.913Z,98033.34
2022-11-29T05:42:52.342Z,98028.22
2022-11-29T05:45:26.926Z,98035.06
2022-11-29T05:48:00.590Z,98034.06
2022-11-29T05:50:34.379Z,98041.59
2022-11-29T05:53:18.271Z,98035.63
2022-11-29T05:55:56.010Z,98037.47
2022-11-29T05:58:30.918Z,98042.44
2022-11-29T06:01:02.887Z,98040.44
2022-11-29T06:03:36.626Z,98046.59
2022-11-29T06:06:09.186Z,98043.19
2022-11-29T06:08:43.624Z,98042.25
2022-11-29T06:11:17.249Z,98044.94
2022-11-29T06:13:56.888Z,98046.75
2022-11-29T06:16:42.583Z,98054.44
2022-11-29T06:19:35.761Z,98060.31
2022-11-29T06:22:16.860Z,98060.31
2022-11-29T06:24:58.473Z,98065.56
2022-11-29T06:27:49.241Z,98064.75
2022-11-29T06:30:20.896Z,98065.56
2022-11-29T06:32:55.538Z,98071.72
2022-11-29T06:35:37.065Z,98073.16
2022-11-29T06:38:11.012Z,98068.09
2022-11-29T06:40:40.168Z,98081.88
2022-11-29T06:43:09.288Z,98079.91
2022-11-29T06:45:38.411Z,98081.78
2022-11-29T06:48:11.159Z,98081.75
2022-11-29T06:50:48.887Z,98079.31
2022-11-29T06:53:23.643Z,98085.97
2022-11-29T06:55:59.130Z,98084.31
2022-11-29T06:58:39.453Z,98089.34
2022-11-29T07:01:17.304Z,98086.94
2022-11-29T07:04:08.895Z,98092.06
2022-11-29T07:06:39.157Z,98098.06
2022-11-29T07:09:13.376Z,98094.69
2022-11-29T07:11:43.278Z,98103.22
2022-11-29T07:14:12.782Z,98106.81
2022-11-29T07:16:52.066Z,98108.31
2022-11-29T07:19:32.764Z,98101.50
2022-11-29T07:22:06.782Z,98106.63
2022-11-29T07:24:45.767Z,98120.34
2022-11-29T07:27:20.112Z,98123.94
2022-11-29T07:30:05.084Z,98115.44
2022-11-29T07:32:47.311Z,98123.81
2022-11-29T07:35:31.322Z,98128.13
2022-11-29T07:38:08.748Z,98126.44
2022-11-29T07:40:44.866Z,98121.44
2022-11-29T07:43:22.835Z,98120.59
2022-11-29T07:45:52.446Z,98124.69
2022-11-29T07:48:21.065Z,98121.25
2022-11-29T07:50:51.193Z,98124.66
2022-11-29T07:53:21.589Z,98131.41
2022-11-29T07:55:50.631Z,98130.53
2022-11-29T07:58:20.029Z,98133.97
2022-11-29T08:00:48.809Z,98136.47
2022-11-29T08:03:19.537Z,98142.44
2022-11-29T08:05:50.683Z,98131.16
2022-11-29T08:08:19.332Z,98134.44
2022-11-29T08:10:48.292Z,98138.72
2022-11-29T08:13:17.157Z,98137.91
2022-11-29T08:15:46.508Z,98144.69
2022-11-29T08:18:15.516Z,98138.91
2022-11-29T08:20:46.107Z,98143.97
2022-11-29T08:23:16.102Z,98148.03
2022-11-29T08:25:45.806Z,98149.06
2022-11-29T08:28:14.585Z,98144.03
2022-11-29T08:30:43.230Z,98148.19
2022-11-29T08:33:11.879Z,98146.41
2022-11-29T08:35:42.130Z,98154.13
2022-11-29T08:38:10.874Z,98156.75
2022-11-29T08:40:41.161Z,98165.09
2022-11-29T08:43:09.752Z,98153.09
2022-11-29T08:45:38.688Z,98156.50
2022-11-29T08:48:07.872Z,98155.75
2022-11-29T08:50:36.813Z,98163.44
2022-11-29T08:53:23.099Z,98159.91
2022-11-29T08:55:53.446Z,98160.00
2022-11-29T08:58:22.111Z,98158.31
2022-11-29T09:00:50.941Z,98166.94
2022-11-29T09:03:37.159Z,98161.91
2022-11-29T09:06:12.444Z,98168.69
2022-11-29T09:08:43.700Z,98167.91
2022-11-29T09:11:15.759Z,98176.44
2022-11-29T09:13:45.946Z,98187.41
2022-11-29T09:16:17.858Z,98174.56
2022-11-29T09:18:51.812Z,98182.16
2022-11-29T09:21:20.952Z,98186.34
2022-11-29T09:23:49.908Z,98178.69
2022-11-29T09:26:20.941Z,98186.34
2022-11-29T09:28:50.027Z,98187.09
2022-11-29T09:31:20.031Z,98187.91
2022-11-29T09:33:48.974Z,98192.06
2022-11-29T09:36:18.012Z,98192.78
2022-11-29T09:38:46.933Z,98192.78
2022-11-29T09:41:29.364Z,98201.25
2022-11-29T09:44:07.056Z,98197.78
2022-11-29T09:46:42.396Z,98200.34
2022-11-29T09:49:28.077Z,98204.59
2022-11-29T09:52:02.126Z,98209.72
2022-11-29T09:54:39.086Z,98203.81
2022-11-29T09:57:10.988Z,98202.28
2022-11-29T09:59:43.316Z,98212.34
2022-11-29T10:02:21.733Z,98215.75
2022-11-29T10:04:53.507Z,98216.53
2022-11-29T10:07:26.539Z,98213.06
2022-11-29T10:09:58.429Z,98218.22
2022-11-29T10:12:35.243Z,98218.13
2022-11-29T10:15:09.153Z,98219.94
2022-11-29T10:17:41.811Z,98217.25
2022-11-29T10:20:16.547Z,98219.88
2022-11-29T10:22:49.570Z,98216.41
2022-11-29T10:25:23.790Z,98214.63
2022-11-29T10:27:54.415Z,98214.56
2022-11-29T10:30:23.577Z,98217.97
2022-11-29T10:32:56.480Z,98216.25
2022-11-29T10:35:25.602Z,98213.50
2022-11-29T10:38:29.253Z,98211.03
2022-11-29T10:40:47.855Z,98216.09
2022-11-29T10:43:17.950Z,98210.22
2022-11-29T10:45:50.398Z,98211.03
2022-11-29T10:48:20.560Z,98205.91
2022-11-29T10:50:51.369Z,98205.91
2022-11-29T10:53:23.943Z,98203.34
2022-11-29T10:55:56.605Z,98209.09
2022-11-29T10:58:28.944Z,98219.66
2022-11-29T11:00:59.840Z,98217.31
2022-11-29T11:03:37.541Z,98212.84
2022-11-29T11:06:12.759Z,98218.84
2022-11-29T11:08:44.664Z,98212.97
2022-11-29T11:11:13.958Z,98218.75
2022-11-29T11:13:44.338Z,98222.84
2022-11-29T11:16:18.619Z,98219.53
2022-11-29T11:18:48.958Z,98228.19
2022-11-29T11:21:20.574Z,98217.97
2022-11-29T11:23:55.696Z,98210.13
2022-11-29T11:26:24.473Z,98214.41
2022-11-29T11:28:58.063Z,98214.25
2022-11-29T11:31:32.898Z,98211.81
2022-11-29T11:34:16.477Z,98207.34
2022-11-29T11:36:45.070Z,98209.91
2022-11-29T11:39:19.490Z,98215.78
2022-11-29T11:42:06.410Z,98214.19
2022-11-29T11:44:57.998Z,98220.88
2022-11-29T11:47:28.270Z,98224.50
2022-11-29T11:50:06.815Z,98226.22
2022-11-29T11:52:41.170Z,98224.28
2022-11-29T11:55:32.097Z,98226.06
2022-11-29T11:58:09.779Z,98225.94
2022-11-29T12:03:39.611Z,98228.47
2022-11-29T12:06:26.114Z,98231.78
2022-11-29T12:08:58.959Z,98235.19
2022-11-29T12:11:28.158Z,98236.09
2022-11-29T12:13:59.141Z,98239.50
2022-11-29T12:16:32.595Z,98239.47
2022-11-29T12:19:04.572Z,98237.75
2022-11-29T12:21:36.215Z,98239.47
2022-11-29T12:24:12.522Z,98240.28
2022-11-29T12:26:58.971Z,98244.59
2022-11-29T12:29:33.539Z,98249.00
2022-11-29T12:32:15.730Z,98248.03
2022-11-29T12:34:53.468Z,98262.72
2022-11-29T12:37:26.174Z,98254.06
2022-11-29T12:39:58.852Z,98254.72
2022-11-29T12:42:37.190Z,98248.03
2022-11-29T12:45:20.923Z,98255.03
2022-11-29T12:47:56.380Z,98254.97
2022-11-29T12:50:33.749Z,98256.66
2022-11-29T12:53:20.148Z,98262.50
2022-11-29T12:55:58.398Z,98256.66
2022-11-29T12:58:31.102Z,98258.31
2022-11-29T13:01:07.290Z,98260.00
2022-11-29T13:03:43.064Z,98257.56
2022-11-29T13:06:19.159Z,98263.44
2022-11-29T13:08:55.207Z,98262.56
2022-11-29T13:11:26.603Z,98267.81
2022-11-29T13:14:20.211Z,98260.88
2022-11-29T13:16:53.281Z,98263.34
2022-11-29T13:19:29.885Z,98266.81
2022-11-29T13:22:06.302Z,98267.75
2022-11-29T13:24:42.562Z,98272.59
2022-11-29T13:27:16.106Z,98270.00
2022-11-29T13:29:45.199Z,98264.22
2022-11-29T13:32:27.999Z,98266.81
2022-11-29T13:35:02.196Z,98276.09
2022-11-29T13:37:37.107Z,98265.78
2022-11-29T13:40:17.426Z,98271.81
2022-11-29T13:42:50.931Z,98273.72
2022-11-29T13:45:24.267Z,98278.84
2022-11-29T13:47:54.890Z,98276.25
2022-11-29T13:50:42.410Z,98278.13
2022-11-29T13:53:16.657Z,98280.78
2022-11-29T13:55:46.903Z,98278.97
2022-11-29T13:58:36.667Z,98281.44
2022-11-29T14:01:09.598Z,98287.34
2022-11-29T14:03:40.034Z,98290.69
2022-11-29T14:06:15.599Z,98288.25
2022-11-29T14:09:19.456Z,98291.69
2022-11-29T14:11:50.208Z,98292.72
2022-11-29T14:14:26.157Z,98290.22
2022-11-29T14:16:57.410Z,98293.69
2022-11-29T14:19:33.081Z,98292.66
2022-11-29T14:22:28.066Z,98296.19
2022-11-29T14:25:49.579Z,98297.81
2022-11-29T14:28:30.598Z,98294.53
2022-11-29T14:31:01.592Z,98297.03
2022-11-29T14:33:40.012Z,98294.56
2022-11-29T14:36:31.871Z,98297.03
2022-11-29T14:39:21.544Z,98304.78
2022-11-29T14:41:57.073Z,98299.78
2022-11-29T14:44:28.418Z,98308.38
2022-11-29T14:47:05.139Z,98307.59
2022-11-29T14:49:39.934Z,98296.38
2022-11-29T14:52:21.526Z,98299.84
2022-11-29T14:54:58.121Z,98304.13
2022-11-29T14:58:06.393Z,98305.94
2022-11-29T15:00:56.245Z,98314.47
2022-11-29T15:03:34.866Z,98313.75
2022-11-29T15:06:13.030Z,98320.53
2022-11-29T15:08:50.116Z,98320.44
2022-11-29T15:11:31.817Z,98324.63
2022-11-29T15:14:05.635Z,98326.41
2022-11-29T15:16:57.206Z,98321.25
2022-11-29T15:19:50.447Z,98322.09
2022-11-29T15:22:20.578Z,98318.75
2022-11-29T15:24:54.487Z,98330.88
2022-11-29T15:27:24.977Z,98322.34
2022-11-29T15:29:54.131Z,98330.94
2022-11-29T15:32:26.191Z,98325.75
2022-11-29T15:34:56.274Z,98335.06
2022-11-29T15:37:26.827Z,98337.63
2022-11-29T15:40:05.967Z,98333.38
2022-11-29T15:42:43.376Z,98340.97
2022-11-29T15:45:33.376Z,98346.22
2022-11-29T15:48:18.935Z,98343.59
2022-11-29T15:50:53.314Z,98352.19
2022-11-29T15:53:26.907Z,98354.09
2022-11-29T15:55:57.740Z,98348.91
2022-11-29T15:58:30.301Z,98346.38
2022-11-29T16:01:00.334Z,98350.81
2022-11-29T16:03:31.837Z,98360.16
2022-11-29T16:06:08.293Z,98360.16
2022-11-29T16:08:41.064Z,98361.97
2022-11-29T16:11:15.297Z,98368.78
2022-11-29T16:14:02.491Z,98371.34
2022-11-29T16:16:32.791Z,98367.22
2022-11-29T16:19:10.945Z,98370.56
2022-11-29T16:21:39.676Z,98371.44
2022-11-29T16:24:21.877Z,98370.56
2022-11-29T16:26:51.903Z,98373.19
2022-11-29T16:29:25.425Z,98367.31
2022-11-29T16:31:54.842Z,98372.47
2022-11-29T16:34:27.819Z,98381.97
2022-11-29T16:37:03.604Z,98383.63
2022-11-29T16:39:32.475Z,98385.19
2022-11-29T16:42:08.745Z,98384.47
2022-11-29T16:45:16.643Z,98384.63
2022-11-29T16:47:52.494Z,98387.25
2022-11-29T16:50:22.902Z,98384.69
2022-11-29T16:52:56.401Z,98377.09
2022-11-29T16:55:25.893Z,98388.22
2022-11-29T16:57:54.582Z,98383.19
2022-11-29T17:00:31.312Z,98384.84
2022-11-29T17:03:00.200Z,98386.53
2022-11-29T17:05:29.287Z,98389.97
2022-11-29T17:07:58.293Z,98388.22
2022-11-29T17:10:28.987Z,98388.22
2022-11-29T17:12:57.738Z,98391.66
2022-11-29T17:15:27.875Z,98389.97
2022-11-29T17:17:56.587Z,98398.53
2022-11-29T17:20:25.392Z,98397.00
2022-11-29T17:22:54.166Z,98386.84
2022-11-29T17:25:22.775Z,98395.41
2022-11-29T17:27:51.527Z,98406.63
2022-11-29T17:30:20.345Z,98397.13
2022-11-29T17:32:50.665Z,98403.97
2022-11-29T17:35:19.334Z,98407.28
2022-11-29T17:37:48.154Z,98404.72
2022-11-29T17:40:17.054Z,98398.81
2022-11-29T17:42:46.131Z,98410.75
2022-11-29T17:45:14.936Z,98416.91
2022-11-29T17:47:43.724Z,98419.44
2022-11-29T17:50:14.035Z,98414.31
2022-11-29T17:52:42.784Z,98413.47
2022-11-29T17:55:11.885Z,98418.72
2022-11-29T17:57:40.477Z,98411.91
2022-11-29T18:00:12.986Z,98423.13
2022-11-29T18:02:41.701Z,98425.56
2022-11-29T18:05:12.478Z,98423.03
2022-11-29T18:07:58.203Z,98426.47
2022-11-29T18:10:28.165Z,98424.88
2022-11-29T18:12:56.985Z,98430.00
2022-11-29T18:15:25.667Z,98428.25
2022-11-29T18:17:54.372Z,98427.44
2022-11-29T18:20:23.021Z,98423.22
2022-11-29T18:22:53.492Z,98434.28
2022-11-29T18:25:39.589Z,98432.63
2022-11-29T18:28:11.416Z,98437.00
2022-11-29T18:30:40.451Z,98437.78
2022-11-29T18:33:09.140Z,98437.09
2022-11-29T18:35:38.110Z,98443.06
2022-11-29T18:38:16.458Z,98449.09
2022-11-29T18:40:46.463Z,98452.53
2022-11-29T18:43:17.815Z,98460.97
2022-11-29T18:45:46.814Z,98461.94
2022-11-29T18:48:15.424Z,98462.06
2022-11-29T18:50:44.232Z,98472.31
2022-11-29T18:53:14.528Z,98472.28
2022-11-29T18:55:43.235Z,98470.66
2022-11-29T18:58:11.820Z,98465.41
2022-11-29T19:00:40.845Z,98466.47
2022-11-29T19:03:09.547Z,98468.88
2022-11-29T19:05:42.456Z,98467.25
2022-11-29T19:08:11.299Z,98467.16
2022-11-29T19:10:41.346Z,98464.59
2022-11-29T19:13:10.010Z,98461.13
2022-11-29T19:15:38.872Z,98466.47
2022-11-29T19:18:07.531Z,98462.31
2022-11-29T19:20:36.241Z,98464.03
2022-11-29T19:23:04.950Z,98461.44
2022-11-29T19:25:36.037Z,98463.22
2022-11-29T19:28:12.545Z,98456.50
2022-11-29T19:30:43.402Z,98458.06
2022-11-29T19:33:14.687Z,98459.03
2022-11-29T19:35:43.802Z,98442.91
2022-11-29T19:38:13.233Z,98447.25
2022-11-29T19:40:42.238Z,98451.47
2022-11-29T19:43:12.560Z,98461.84
2022-11-29T19:45:41.596Z,98463.72
2022-11-29T19:48:10.442Z,98460.28
2022-11-29T19:50:39.199Z,98463.78
2022-11-29T19:53:08.204Z,98468.09
2022-11-29T19:55:43.884Z,98475.75
2022-11-29T19:58:14.430Z,98474.06
2022-11-29T20:00:43.170Z,98470.63
2022-11-29T20:03:12.022Z,98468.91
2022-11-29T20:05:40.881Z,98479.19
2022-11-29T20:08:09.847Z,98479.19
2022-11-29T20:10:38.474Z,98484.31
2022-11-29T20:13:07.910Z,98486.00
2022-11-29T20:15:37.906Z,98489.34
2022-11-29T20:18:07.471Z,98490.19
2022-11-29T20:20:36.619Z,98484.19
2022-11-29T20:23:05.366Z,98482.47
2022-11-29T20:25:36.175Z,98479.84
2022-11-29T20:28:13.972Z,98475.66
2022-11-29T20:30:44.216Z,98486.00
2022-11-29T20:33:17.073Z,98489.41
2022-11-29T20:35:45.786Z,98492.81
2022-11-29T20:38:19.901Z,98490.25
2022-11-29T20:41:02.458Z,98494.53
2022-11-29T20:43:38.629Z,98491.25
2022-11-29T20:46:09.253Z,98483.53
2022-11-29T20:48:38.584Z,98482.75
2022-11-29T20:51:08.329Z,98487.88
2022-11-29T20:53:39.464Z,98488.75
2022-11-29T20:56:08.882Z,98488.72
2022-11-29T20:58:37.719Z,98487.88
2022-11-29T21:01:08.459Z,98495.56
2022-11-29T21:03:37.317Z,98492.22
2022-11-29T21:06:07.951Z,98490.56
2022-11-29T21:08:37.627Z,98498.13
2022-11-29T21:11:08.163Z,98486.19
2022-11-29T21:13:37.568Z,98495.63
2022-11-29T21:16:08.938Z,98493.97
2022-11-29T21:18:38.371Z,98500.81
2022-11-29T21:21:21.579Z,98500.00
2022-11-29T21:23:56.198Z,98503.38
2022-11-29T21:26:29.565Z,98500.81
2022-11-29T21:29:13.096Z,98501.69
2022-11-29T21:31:43.932Z,98506.03
2022-11-29T21:34:12.930Z,98497.50
2022-11-29T21:36:42.096Z,98496.66
2022-11-29T21:39:16.840Z,98493.97
2022-11-29T21:41:45.955Z,98493.06
2022-11-29T21:44:14.563Z,98496.38
2022-11-29T21:46:45.007Z,98499.91
2022-11-29T21:49:13.718Z,98497.53
2022-11-29T21:51:42.856Z,98505.97
2022-11-29T21:54:11.703Z,98503.56
2022-11-29T21:56:40.323Z,98501.78
2022-11-29T21:59:09.026Z,98498.44
2022-11-29T22:01:37.938Z,98504.38
2022-11-29T22:04:08.476Z,98505.28
2022-11-29T22:06:37.782Z,98506.22
2022-11-29T22:09:07.619Z,98501.06
2022-11-29T22:11:36.749Z,98503.56
2022-11-29T22:14:18.444Z,98496.75
2022-11-29T22:16:49.083Z,98506.94
2022-11-29T22:19:20.324Z,98506.22
2022-11-29T22:21:50.537Z,98508.69
2022-11-29T22:24:20.909Z,98520.81
2022-11-29T22:26:50.508Z,98508.03
2022-11-29T22:29:19.585Z,98509.75
2022-11-29T22:31:52.699Z,98520.06
2022-11-29T22:34:25.024Z,98524.38
2022-11-29T22:36:54.459Z,98520.00
2022-11-29T22:39:24.719Z,98516.44
2022-11-29T22:41:55.015Z,98516.47
2022-11-29T22:44:24.488Z,98513.00
2022-11-29T22:46:53.328Z,98509.59
2022-11-29T22:49:23.621Z,98512.31
2022-11-29T22:51:52.676Z,98510.66
2022-11-29T22:54:21.413Z,98513.31
2022-11-29T22:56:50.161Z,98518.41
2022-11-29T22:59:19.072Z,98514.19
2022-11-29T23:01:48.025Z,98513.28
2022-11-29T23:04:16.820Z,98509.84
2022-11-29T23:06:47.665Z,98508.25
2022-11-29T23:09:19.887Z,98508.19
2022-11-29T23:11:52.066Z,98507.41
2022-11-29T23:14:21.995Z,98514.22
2022-11-29T23:16:51.135Z,98516.84
2022-11-29T23:19:20.042Z,98515.13
2022-11-29T23:21:50.284Z,98517.81
2022-11-29T23:24:19.174Z,98511.03
2022-11-29T23:26:48.944Z,98520.38
2022-11-29T23:29:19.948Z,98521.22
2022-11-29T23:31:51.081Z,98516.19
2022-11-29T23:34:19.922Z,98515.41
2022-11-29T23:36:52.858Z,98511.13
2022-11-29T23:39:22.147Z,98505.16
2022-11-29T23:41:50.752Z,98513.63
2022-11-29T23:44:19.562Z,98511.13
2022-11-29T23:46:48.453Z,98511.88
2022-11-29T23:49:17.139Z,98501.63
2022-11-29T23:51:45.956Z,98509.25
2022-11-29T23:54:15.996Z,98511.03
2022-11-29T23:56:44.783Z,98509.34
2022-11-29T23:59:13.549Z,98509.44
